Meteo Giornale » Osservazioni meteo Svizzera » Saint Gallen-Altenrhein

ore: 14:20 - Osservazioni Meteo Saint Gallen-Altenrhein
Lat. 47° 29' N Lon. 9° 33' E Alt. 398 metri s.l.m.

sereno Europe/Zurich

18 °C

Sereno

Temp. 24 Ore

10 °C

20 °C

Ovest

7.4 Km/h

Dew point 13 °C

Umidità 72 %

Visibilità  10 Km

Il sole sorge alle ore 07:11

Il sole tramonta alle ore 19:15

Data e Ora Cielo e Fenomeni T °C DP °C Um. % Pres. hPa Vis. km Vento km/h
Oggi h: 14:20 sereno Sereno 18 13 72 1018 10 O 7.4
Oggi h: 13:50 sereno Sereno 18 13 72 1018 10 O 7.4
Oggi h: 13:20 sereno Sereno 16 13 82 1019 10 O 9.3
Oggi h: 12:50 sereno Sereno 16 13 82 1019 10 O 9.3
Oggi h: 12:20 poco_nuvoloso Poco Nuvoloso 16 14 87 1019 10 N 3.7
Oggi h: 11:50 poco_nuvoloso Poco Nuvoloso 16 14 87 1019 10 N 3.7
Oggi h: 11:20 nuvoloso Nuvoloso 15 14 93 1020 10 N 3.7
Oggi h: 10:50 foschia Foschia NebbiaParziale 14 13 93 1020 3 N 3.7
Oggi h: 10:20 foschia Foschia NebbiaParziale 14 13 93 1020 3 N 3.7
Oggi h: 09:50 foschia Foschia NebbiaParziale 14 13 93 1019 3 N 5.5
Oggi h: 09:20 foschia Foschia NebbiaParziale 14 13 93 1019 3 N 5.5
Oggi h: 08:50 foschia Foschia NebbiaParziale 11 11 100 1019 3 N 3.7
Oggi h: 08:20 foschia Foschia NebbiaParziale 11 11 100 1019 3 N 3.7
Oggi h: 07:50 foschia Foschia Banco di Nebbia 11 10 93 1019 4 N 3.7
Oggi h: 07:20 molto_nuvoloso Molto Nuvoloso 10 10 100 1019 8 N 3.7
Oggi h: 06:50 molto_nuvoloso Molto Nuvoloso 11 10 93 1019 10 N 3.7
Oggi h: 05:50 molto_nuvoloso Molto Nuvoloso 11 11 100 1019 10 N 5.5
Oggi h: 05:20 sereno Sereno 10 10 100 1019 10 N 3.7
Oggi h: 04:50 foschia Foschia 10 10 100 1019 3 N 1.8
Oggi h: 04:20 sereno Sereno 10 10 100 1019 10 N 3.7
Oggi h: 03:50 nebbia Nebbia 10 10 100 1019 7 N 1.8
Oggi h: 03:20 nebbia Nebbia 11 10 93 1019 10 N 1.8
Oggi h: 01:50 foschia Foschia 11 11 100 1019 4 N 3.7
Oggi h: 01:20 sereno Sereno 11 11 100 1019 9 N 1.8
Oggi h: 00:50 sereno Sereno 12 12 100 1019 9 N 3.7
Oggi h: 00:20 sereno Sereno 12 12 100 1019 7 N 3.7
Ieri h: 23:50 sereno Sereno 12 12 100 1019 10 N 3.7
Ieri h: 23:20 sereno Sereno 12 12 100 1019 10 N 3.7
Ieri h: 22:50 sereno Sereno 12 12 100 1019 10 N 1.8
Ieri h: 22:20 sereno Sereno 13 12 93 1019 10 N 1.8
Ieri h: 21:50 sereno Sereno 13 12 93 1019 10 N 3.7
Ieri h: 21:20 sereno Sereno 14 13 93 1019 10 N 1.8
Ieri h: 20:50 sereno Sereno 15 14 93 1019 10 N 3.7
Ieri h: 20:20 sereno Sereno 16 14 87 1019 10 N 3.7
Ieri h: 19:50 sereno Sereno 17 14 82 1018 10 N 3.7
Ieri h: 19:20 sereno Sereno 17 14 82 1018 10 N 3.7
Ieri h: 18:50 sereno Sereno 20 13 64 1018 10 N 3.7
Ieri h: 18:20 sereno Sereno 20 13 64 1018 10 N 3.7
Ieri h: 17:50 sereno Sereno 20 13 64 1018 10 N 5.5
Ieri h: 17:20 sereno Sereno 20 13 64 1018 10 N 5.5
Ieri h: 16:50 sereno Sereno 20 14 68 1019 10 N 5.5
Ieri h: 16:20 sereno Sereno 20 13 64 1019 10 N 5.5
Ieri h: 15:50 sereno Sereno 20 14 68 1019 10 N 5.5
Ieri h: 14:50 sereno Sereno 19 14 72 1020 10 N 5.5